createdAt,value
2022-10-09T00:02:06.766Z,100.00
2022-10-09T00:04:36.571Z,100.00
2022-10-09T00:07:06.535Z,100.00
2022-10-09T00:09:36.397Z,100.00
2022-10-09T00:12:06.504Z,100.00
2022-10-09T00:14:36.463Z,100.00
2022-10-09T00:17:07.413Z,100.00
2022-10-09T00:19:37.343Z,100.00
2022-10-09T00:22:07.122Z,100.00
2022-10-09T00:24:36.918Z,100.00
2022-10-09T00:27:07.140Z,100.00
2022-10-09T00:29:37.116Z,100.00
2022-10-09T00:32:06.958Z,100.00
2022-10-09T00:34:36.744Z,100.00
2022-10-09T00:37:06.614Z,100.00
2022-10-09T00:39:36.609Z,100.00
2022-10-09T00:42:06.980Z,100.00
2022-10-09T00:44:53.136Z,100.00
2022-10-09T00:47:47.078Z,100.00
2022-10-09T00:50:19.854Z,100.00
2022-10-09T00:52:52.708Z,100.00
2022-10-09T00:55:24.685Z,100.00
2022-10-09T00:57:57.105Z,100.00
2022-10-09T01:00:27.436Z,100.00
2022-10-09T01:02:57.499Z,100.00
2022-10-09T01:05:32.813Z,100.00
2022-10-09T01:08:11.453Z,100.00
2022-10-09T01:11:02.691Z,100.00
2022-10-09T01:13:41.397Z,100.00
2022-10-09T01:16:25.854Z,100.00
2022-10-09T01:19:01.309Z,100.00
2022-10-09T01:21:37.143Z,100.00
2022-10-09T01:24:32.378Z,100.00
2022-10-09T01:27:18.466Z,100.00
2022-10-09T01:29:51.293Z,100.00
2022-10-09T01:32:24.064Z,100.00
2022-10-09T01:34:55.398Z,100.00
2022-10-09T01:37:25.585Z,100.00
2022-10-09T01:39:55.633Z,100.00
2022-10-09T01:42:27.660Z,100.00
2022-10-09T01:44:57.423Z,100.00
2022-10-09T01:47:28.703Z,100.00
2022-10-09T01:50:13.520Z,100.00
2022-10-09T01:52:52.595Z,100.00
2022-10-09T01:55:34.965Z,100.00
2022-10-09T01:58:31.977Z,100.00
2022-10-09T02:01:28.815Z,100.00
2022-10-09T02:04:02.221Z,100.00
2022-10-09T02:06:33.058Z,100.00
2022-10-09T02:09:05.856Z,100.00
2022-10-09T02:11:39.052Z,100.00
2022-10-09T02:14:09.757Z,100.00
2022-10-09T02:16:45.088Z,100.00
2022-10-09T02:19:29.713Z,100.00
2022-10-09T02:22:14.417Z,100.00
2022-10-09T02:24:45.353Z,100.00
2022-10-09T02:27:16.902Z,100.00
2022-10-09T02:29:48.628Z,100.00
2022-10-09T02:32:18.537Z,100.00
2022-10-09T02:34:48.336Z,100.00
2022-10-09T02:37:18.009Z,100.00
2022-10-09T02:39:47.960Z,100.00
2022-10-09T02:42:17.520Z,100.00
2022-10-09T02:44:47.315Z,100.00
2022-10-09T02:47:16.874Z,100.00
2022-10-09T02:49:46.697Z,100.00
2022-10-09T02:52:16.491Z,100.00
2022-10-09T02:54:46.277Z,100.00
2022-10-09T02:57:15.756Z,100.00
2022-10-09T02:59:45.556Z,100.00
2022-10-09T03:02:15.335Z,100.00
2022-10-09T03:04:45.172Z,100.00
2022-10-09T03:07:14.824Z,100.00
2022-10-09T03:09:44.628Z,100.00
2022-10-09T03:12:16.142Z,100.00
2022-10-09T03:14:45.913Z,100.00
2022-10-09T03:17:15.608Z,100.00
2022-10-09T03:19:45.396Z,100.00
2022-10-09T03:22:14.992Z,100.00
2022-10-09T03:24:44.834Z,100.00
2022-10-09T03:27:14.582Z,100.00
2022-10-09T03:29:44.347Z,100.00
2022-10-09T03:32:14.534Z,100.00
2022-10-09T03:34:44.783Z,100.00
2022-10-09T03:37:14.612Z,100.00
2022-10-09T03:39:44.914Z,100.00
2022-10-09T03:42:14.719Z,100.00
2022-10-09T03:44:44.558Z,100.00
2022-10-09T03:47:14.199Z,100.00
2022-10-09T03:49:44.644Z,100.00
2022-10-09T03:52:14.503Z,100.00
2022-10-09T03:54:44.346Z,100.00
2022-10-09T03:57:14.256Z,100.00
2022-10-09T03:59:44.049Z,100.00
2022-10-09T04:02:13.909Z,100.00
2022-10-09T04:04:43.864Z,100.00
2022-10-09T04:07:13.368Z,100.00
2022-10-09T04:09:43.141Z,100.00
2022-10-09T04:12:12.713Z,100.00
2022-10-09T04:14:42.668Z,100.00
2022-10-09T04:17:12.218Z,100.00
2022-10-09T04:19:42.020Z,100.00
2022-10-09T04:22:11.652Z,100.00
2022-10-09T04:24:41.426Z,100.00
2022-10-09T04:27:11.124Z,100.00
2022-10-09T04:29:40.900Z,100.00
2022-10-09T04:32:10.761Z,100.00
2022-10-09T04:34:40.545Z,100.00
2022-10-09T04:37:10.360Z,100.00
2022-10-09T04:39:40.144Z,100.00
2022-10-09T04:42:10.010Z,100.00
2022-10-09T04:44:39.801Z,100.00
2022-10-09T04:47:11.392Z,100.00
2022-10-09T04:49:40.495Z,100.00
2022-10-09T04:52:10.115Z,100.00
2022-10-09T04:54:40.191Z,100.00
2022-10-09T04:57:10.073Z,100.00
2022-10-09T04:59:39.823Z,100.00
2022-10-09T05:02:09.744Z,100.00
2022-10-09T05:04:39.539Z,100.00
2022-10-09T05:07:09.134Z,100.00
2022-10-09T05:09:38.916Z,100.00
2022-10-09T05:12:09.177Z,100.00
2022-10-09T05:14:38.653Z,100.00
2022-10-09T05:17:14.140Z,100.00
2022-10-09T05:19:39.951Z,100.00
2022-10-09T05:22:09.582Z,100.00
2022-10-09T05:24:39.713Z,100.00
2022-10-09T05:27:09.475Z,100.00
2022-10-09T05:29:39.267Z,100.00
2022-10-09T05:32:09.191Z,100.00
2022-10-09T05:34:39.001Z,100.00
2022-10-09T05:37:08.847Z,100.00
2022-10-09T05:39:39.486Z,100.00
2022-10-09T05:42:09.137Z,100.00
2022-10-09T05:44:38.910Z,100.00
2022-10-09T05:47:08.607Z,100.00
2022-10-09T05:49:42.659Z,100.00
2022-10-09T05:52:12.594Z,100.00
2022-10-09T05:54:42.382Z,100.00
2022-10-09T05:57:11.888Z,100.00
2022-10-09T05:59:41.673Z,100.00
2022-10-09T06:02:11.273Z,100.00
2022-10-09T06:04:41.128Z,100.00
2022-10-09T06:07:12.103Z,100.00
2022-10-09T06:09:41.943Z,100.00
2022-10-09T06:12:11.737Z,100.00
2022-10-09T06:14:41.515Z,100.00
2022-10-09T06:17:11.315Z,100.00
2022-10-09T06:19:41.174Z,100.00
2022-10-09T06:22:10.663Z,100.00
2022-10-09T06:24:40.541Z,100.00
2022-10-09T06:27:10.969Z,100.00
2022-10-09T06:29:40.924Z,100.00
2022-10-09T06:32:10.790Z,100.00
2022-10-09T06:34:40.588Z,100.00
2022-10-09T06:37:10.210Z,100.00
2022-10-09T06:39:40.006Z,100.00
2022-10-09T06:42:09.550Z,100.00
2022-10-09T06:44:45.630Z,100.00
2022-10-09T06:47:15.493Z,100.00
2022-10-09T06:49:45.299Z,100.00
2022-10-09T06:52:14.926Z,100.00
2022-10-09T06:54:44.709Z,100.00
2022-10-09T06:57:14.476Z,100.00
2022-10-09T06:59:44.263Z,100.00
2022-10-09T07:02:14.277Z,100.00
2022-10-09T07:04:44.203Z,100.00
2022-10-09T07:07:13.705Z,100.00
2022-10-09T07:09:43.494Z,100.00
2022-10-09T07:12:13.056Z,100.00
2022-10-09T07:14:42.836Z,100.00
2022-10-09T07:17:12.411Z,100.00
2022-10-09T07:19:42.262Z,100.00
2022-10-09T07:22:11.741Z,100.00
2022-10-09T07:24:41.637Z,100.00
2022-10-09T07:27:11.432Z,100.00
2022-10-09T07:29:41.221Z,100.00
2022-10-09T07:32:11.084Z,100.00
2022-10-09T07:34:40.902Z,100.00
2022-10-09T07:37:10.548Z,100.00
2022-10-09T07:39:44.238Z,100.00
2022-10-09T07:42:12.018Z,100.00
2022-10-09T07:44:41.772Z,100.00
2022-10-09T07:47:11.430Z,100.00
2022-10-09T07:49:41.231Z,100.00
2022-10-09T07:52:10.867Z,100.00
2022-10-09T07:54:40.651Z,100.00
2022-10-09T07:57:10.385Z,100.00
2022-10-09T07:59:40.935Z,100.00
2022-10-09T08:02:11.055Z,100.00
2022-10-09T08:04:41.137Z,100.00
2022-10-09T08:07:10.970Z,100.00
2022-10-09T08:09:41.445Z,100.00
2022-10-09T08:12:11.208Z,100.00
2022-10-09T08:14:41.121Z,100.00
2022-10-09T08:17:10.713Z,100.00
2022-10-09T08:19:40.617Z,100.00
2022-10-09T08:22:11.903Z,100.00
2022-10-09T08:24:41.708Z,100.00
2022-10-09T08:27:11.522Z,100.00
2022-10-09T08:29:41.301Z,100.00
2022-10-09T08:32:11.131Z,100.00
2022-10-09T08:34:42.796Z,100.00
2022-10-09T08:37:12.558Z,100.00
2022-10-09T08:39:42.362Z,100.00
2022-10-09T08:42:17.531Z,100.00
2022-10-09T08:44:49.818Z,100.00
2022-10-09T08:47:34.848Z,100.00
2022-10-09T08:50:10.810Z,100.00
2022-10-09T08:52:50.123Z,100.00
2022-10-09T08:55:29.280Z,100.00
2022-10-09T08:58:04.901Z,100.00
2022-10-09T09:00:40.458Z,100.00
2022-10-09T09:03:42.012Z,100.00
2022-10-09T09:06:16.833Z,100.00
2022-10-09T09:08:58.035Z,100.00
2022-10-09T09:11:36.360Z,100.00
2022-10-09T09:14:18.683Z,100.00
2022-10-09T09:17:15.306Z,100.00
2022-10-09T09:19:53.643Z,100.00
2022-10-09T09:22:25.319Z,100.00
2022-10-09T09:24:57.542Z,100.00
2022-10-09T09:27:36.972Z,100.00
2022-10-09T09:30:13.256Z,100.00
2022-10-09T09:32:55.127Z,100.00
2022-10-09T09:35:36.766Z,100.00
2022-10-09T09:38:06.609Z,100.00
2022-10-09T09:40:38.049Z,100.00
2022-10-09T09:43:14.062Z,100.00
2022-10-09T09:45:44.302Z,100.00
2022-10-09T09:48:35.019Z,100.00
2022-10-09T09:51:27.300Z,100.00
2022-10-09T09:53:45.367Z,100.00
2022-10-09T09:56:16.637Z,100.00
2022-10-09T09:58:53.180Z,100.00
2022-10-09T10:01:29.093Z,100.00
2022-10-09T10:04:02.250Z,100.00
2022-10-09T10:06:35.045Z,100.00
2022-10-09T10:09:16.054Z,100.00
2022-10-09T10:11:51.568Z,100.00
2022-10-09T10:14:21.547Z,100.00
2022-10-09T10:16:53.996Z,100.00
2022-10-09T10:19:26.599Z,100.00
2022-10-09T10:22:11.050Z,100.00
2022-10-09T10:24:43.629Z,100.00
2022-10-09T10:27:16.708Z,100.00
2022-10-09T10:29:49.888Z,100.00
2022-10-09T10:32:28.252Z,100.00
2022-10-09T10:35:06.965Z,100.00
2022-10-09T10:38:06.517Z,100.00
2022-10-09T10:40:39.374Z,100.00
2022-10-09T10:43:31.971Z,100.00
2022-10-09T10:46:07.361Z,100.00
2022-10-09T10:48:42.687Z,100.00
2022-10-09T10:51:21.472Z,100.00
2022-10-09T10:54:14.036Z,98.54
2022-10-09T10:56:58.342Z,98.54
2022-10-09T10:59:46.357Z,100.00
2022-10-09T11:02:26.382Z,100.00
2022-10-09T11:05:04.672Z,100.00
2022-10-09T11:07:57.793Z,100.00
2022-10-09T11:10:44.094Z,99.50
2022-10-09T11:13:16.627Z,98.18
2022-10-09T11:15:57.796Z,98.22
2022-10-09T11:18:45.453Z,98.69
2022-10-09T11:21:27.161Z,100.00
2022-10-09T11:24:21.276Z,100.00
2022-10-09T11:27:12.368Z,100.00
2022-10-09T11:30:01.813Z,97.43
2022-10-09T11:32:37.562Z,100.00
2022-10-09T11:35:15.847Z,98.60
2022-10-09T11:37:48.985Z,97.76
2022-10-09T11:40:21.436Z,100.00
2022-10-09T11:42:54.272Z,100.00
2022-10-09T11:45:28.723Z,100.00
2022-10-09T11:48:02.064Z,100.00
2022-10-09T11:50:34.900Z,100.00
2022-10-09T11:53:12.020Z,100.00
2022-10-09T11:55:43.065Z,100.00
2022-10-09T11:58:24.499Z,100.00
2022-10-09T12:00:57.111Z,100.00
2022-10-09T12:03:36.368Z,100.00
2022-10-09T12:06:15.693Z,100.00
2022-10-09T12:09:01.088Z,100.00
2022-10-09T12:11:32.179Z,99.63
2022-10-09T12:14:05.065Z,97.67
2022-10-09T12:16:46.823Z,95.73
2022-10-09T12:19:28.906Z,95.73
2022-10-09T12:22:02.010Z,92.31
2022-10-09T12:24:52.485Z,91.63
2022-10-09T12:27:31.029Z,93.82
2022-10-09T12:30:15.956Z,93.82
2022-10-09T12:32:49.103Z,95.83
2022-10-09T12:35:24.491Z,94.55
2022-10-09T12:37:54.570Z,88.01
2022-10-09T12:40:30.096Z,89.83
2022-10-09T12:43:02.269Z,87.79
2022-10-09T12:45:33.869Z,87.97
2022-10-09T12:48:06.764Z,95.42
2022-10-09T12:50:37.176Z,88.28
2022-10-09T12:53:10.319Z,93.23
2022-10-09T12:55:45.698Z,91.62
2022-10-09T12:58:24.439Z,92.65
2022-10-09T13:00:57.598Z,90.22
2022-10-09T13:03:36.162Z,86.86
2022-10-09T13:06:16.144Z,92.17
2022-10-09T13:08:47.171Z,92.50
2022-10-09T13:11:20.668Z,89.87
2022-10-09T13:13:55.598Z,90.37
2022-10-09T13:16:26.182Z,89.82
2022-10-09T13:19:00.681Z,91.05
2022-10-09T13:21:35.465Z,92.76
2022-10-09T13:24:11.961Z,94.71
2022-10-09T13:26:44.341Z,94.14
2022-10-09T13:29:15.078Z,91.53
2022-10-09T13:31:45.339Z,89.67
2022-10-09T13:34:16.454Z,89.51
2022-10-09T13:36:46.393Z,89.62
2022-10-09T13:39:17.605Z,90.96
2022-10-09T13:41:49.317Z,92.95
2022-10-09T13:44:19.023Z,93.99
2022-10-09T13:46:48.819Z,93.25
2022-10-09T13:49:18.685Z,91.05
2022-10-09T13:51:48.482Z,94.48
2022-10-09T13:54:18.124Z,97.51
2022-10-09T13:56:48.631Z,97.22
2022-10-09T13:59:18.394Z,98.87
2022-10-09T14:01:49.485Z,100.00
2022-10-09T14:04:19.422Z,100.00
2022-10-09T14:06:49.875Z,100.00
2022-10-09T14:09:19.645Z,100.00
2022-10-09T14:11:50.046Z,100.00
2022-10-09T14:14:19.684Z,100.00
2022-10-09T14:16:50.732Z,100.00
2022-10-09T14:19:21.689Z,100.00
2022-10-09T14:21:51.173Z,100.00
2022-10-09T14:24:20.969Z,100.00
2022-10-09T14:26:51.806Z,100.00
2022-10-09T14:29:21.713Z,100.00
2022-10-09T14:31:51.774Z,100.00
2022-10-09T14:34:22.058Z,100.00
2022-10-09T14:36:51.844Z,100.00
2022-10-09T14:39:21.628Z,100.00
2022-10-09T14:41:51.451Z,100.00
2022-10-09T14:44:20.942Z,100.00
2022-10-09T14:46:50.708Z,100.00
2022-10-09T14:49:21.592Z,100.00
2022-10-09T14:51:51.322Z,100.00
2022-10-09T14:54:21.232Z,100.00
2022-10-09T14:56:51.085Z,100.00
2022-10-09T14:59:21.649Z,100.00
2022-10-09T15:01:51.422Z,100.00
2022-10-09T15:04:21.069Z,100.00
2022-10-09T15:06:50.840Z,100.00
2022-10-09T15:09:20.469Z,100.00
2022-10-09T15:11:50.312Z,100.00
2022-10-09T15:14:19.829Z,100.00
2022-10-09T15:16:49.709Z,100.00
2022-10-09T15:19:19.490Z,100.00
2022-10-09T15:21:49.429Z,100.00
2022-10-09T15:24:19.252Z,100.00
2022-10-09T15:26:49.033Z,100.00
2022-10-09T15:29:18.748Z,100.00
2022-10-09T15:31:50.048Z,100.00
2022-10-09T15:34:20.684Z,100.00
2022-10-09T15:36:51.042Z,100.00
2022-10-09T15:39:20.691Z,100.00
2022-10-09T15:41:50.557Z,100.00
2022-10-09T15:44:21.869Z,100.00
2022-10-09T15:46:51.454Z,100.00
2022-10-09T15:49:21.235Z,100.00
2022-10-09T15:51:51.031Z,100.00
2022-10-09T15:54:20.827Z,100.00
2022-10-09T15:56:50.616Z,100.00
2022-10-09T15:59:20.437Z,100.00
2022-10-09T16:01:50.463Z,100.00
2022-10-09T16:04:20.238Z,100.00
2022-10-09T16:06:50.029Z,100.00
2022-10-09T16:09:21.528Z,100.00
2022-10-09T16:11:51.374Z,100.00
2022-10-09T16:14:20.979Z,100.00
2022-10-09T16:16:51.524Z,100.00
2022-10-09T16:19:21.037Z,100.00
2022-10-09T16:21:51.560Z,100.00
2022-10-09T16:24:21.110Z,100.00
2022-10-09T16:26:51.165Z,100.00
2022-10-09T16:29:20.741Z,100.00
2022-10-09T16:31:50.512Z,100.00
2022-10-09T16:34:20.169Z,100.00
2022-10-09T16:36:49.968Z,100.00
2022-10-09T16:39:20.249Z,100.00
2022-10-09T16:41:49.978Z,100.00
2022-10-09T16:44:19.694Z,100.00
2022-10-09T16:46:49.497Z,100.00
2022-10-09T16:49:22.655Z,100.00
2022-10-09T16:51:50.568Z,100.00
2022-10-09T16:54:20.419Z,100.00
2022-10-09T16:56:50.454Z,100.00
2022-10-09T16:59:20.226Z,100.00
2022-10-09T17:01:50.011Z,100.00
2022-10-09T17:04:19.782Z,100.00
2022-10-09T17:06:49.846Z,100.00
2022-10-09T17:09:19.598Z,100.00
2022-10-09T17:11:49.987Z,100.00
2022-10-09T17:14:19.731Z,100.00
2022-10-09T17:16:49.571Z,100.00
2022-10-09T17:19:19.066Z,100.00
2022-10-09T17:21:48.902Z,100.00
2022-10-09T17:24:19.432Z,100.00
2022-10-09T17:26:49.060Z,100.00
2022-10-09T17:29:19.066Z,100.00
2022-10-09T17:31:49.132Z,100.00
2022-10-09T17:34:19.409Z,100.00
2022-10-09T17:36:49.209Z,100.00
2022-10-09T17:39:19.442Z,100.00
2022-10-09T17:41:49.940Z,100.00
2022-10-09T17:44:20.210Z,100.00
2022-10-09T17:46:49.785Z,100.00
2022-10-09T17:49:19.347Z,100.00
2022-10-09T17:51:49.229Z,100.00
2022-10-09T17:54:18.791Z,100.00
2022-10-09T17:56:48.635Z,100.00
2022-10-09T17:59:18.427Z,100.00
2022-10-09T18:01:48.276Z,100.00
2022-10-09T18:04:18.416Z,100.00
2022-10-09T18:07:01.865Z,100.00
2022-10-09T18:09:31.651Z,100.00
2022-10-09T18:12:01.498Z,100.00
2022-10-09T18:14:31.283Z,100.00
2022-10-09T18:17:01.083Z,100.00
2022-10-09T18:19:30.880Z,100.00
2022-10-09T18:22:00.655Z,100.00
2022-10-09T18:24:30.811Z,100.00
2022-10-09T18:27:01.971Z,100.00
2022-10-09T18:29:31.826Z,100.00
2022-10-09T18:32:10.354Z,100.00
2022-10-09T18:34:43.115Z,100.00
2022-10-09T18:37:11.718Z,100.00
2022-10-09T18:39:41.598Z,100.00
2022-10-09T18:42:11.387Z,100.00
2022-10-09T18:44:42.843Z,100.00
2022-10-09T18:47:16.997Z,100.00
2022-10-09T18:49:49.844Z,100.00
2022-10-09T18:52:20.301Z,100.00
2022-10-09T18:54:53.397Z,100.00
2022-10-09T18:57:26.233Z,100.00
2022-10-09T18:59:58.616Z,100.00
2022-10-09T19:02:28.646Z,100.00
2022-10-09T19:04:58.610Z,100.00
2022-10-09T19:07:28.661Z,100.00
2022-10-09T19:09:58.466Z,100.00
2022-10-09T19:12:28.344Z,100.00
2022-10-09T19:14:58.202Z,100.00
2022-10-09T19:17:28.129Z,100.00
2022-10-09T19:19:58.015Z,100.00
2022-10-09T19:22:28.013Z,100.00
2022-10-09T19:24:58.255Z,100.00
2022-10-09T19:27:28.111Z,100.00
2022-10-09T19:29:57.996Z,100.00
2022-10-09T19:32:27.901Z,100.00
2022-10-09T19:34:57.768Z,100.00
2022-10-09T19:37:29.857Z,100.00
2022-10-09T19:39:59.119Z,100.00
2022-10-09T19:42:29.002Z,100.00
2022-10-09T19:44:59.201Z,100.00
2022-10-09T19:47:29.910Z,100.00
2022-10-09T19:49:59.679Z,100.00
2022-10-09T19:52:29.770Z,100.00
2022-10-09T19:54:59.582Z,100.00
2022-10-09T19:57:29.394Z,100.00
2022-10-09T19:59:59.237Z,100.00
2022-10-09T20:02:29.051Z,100.00
2022-10-09T20:04:58.815Z,100.00
2022-10-09T20:07:28.854Z,100.00
2022-10-09T20:09:59.050Z,100.00
2022-10-09T20:12:28.878Z,100.00
2022-10-09T20:14:58.681Z,100.00
2022-10-09T20:17:28.524Z,100.00
2022-10-09T20:19:58.314Z,100.00
2022-10-09T20:22:28.097Z,100.00
2022-10-09T20:24:57.881Z,100.00
2022-10-09T20:27:27.769Z,100.00
2022-10-09T20:29:57.533Z,100.00
2022-10-09T20:32:27.434Z,100.00
2022-10-09T20:34:58.120Z,100.00
2022-10-09T20:37:27.616Z,100.00
2022-10-09T20:39:57.394Z,100.00
2022-10-09T20:42:27.503Z,100.00
2022-10-09T20:44:57.104Z,100.00
2022-10-09T20:47:27.187Z,100.00
2022-10-09T20:49:57.068Z,100.00
2022-10-09T20:52:26.998Z,100.00
2022-10-09T20:54:56.792Z,100.00
2022-10-09T20:57:26.683Z,100.00
2022-10-09T20:59:56.537Z,100.00
2022-10-09T21:02:26.326Z,100.00
2022-10-09T21:04:56.843Z,100.00
2022-10-09T21:07:26.345Z,100.00
2022-10-09T21:09:56.140Z,100.00
2022-10-09T21:12:25.923Z,100.00
2022-10-09T21:14:56.132Z,100.00
2022-10-09T21:17:26.053Z,100.00
2022-10-09T21:19:57.765Z,100.00
2022-10-09T21:22:28.496Z,100.00
2022-10-09T21:24:57.324Z,100.00
2022-10-09T21:27:26.947Z,100.00
2022-10-09T21:29:56.741Z,100.00
2022-10-09T21:32:26.890Z,100.00
2022-10-09T21:34:56.674Z,100.00
2022-10-09T21:37:26.757Z,100.00
2022-10-09T21:39:56.696Z,100.00
2022-10-09T21:42:26.547Z,100.00
2022-10-09T21:44:56.323Z,100.00
2022-10-09T21:47:26.122Z,100.00
2022-10-09T21:49:55.745Z,100.00
2022-10-09T21:52:25.518Z,100.00
2022-10-09T21:54:55.311Z,100.00
2022-10-09T21:57:24.859Z,100.00
2022-10-09T21:59:54.730Z,100.00
2022-10-09T22:02:24.384Z,100.00
2022-10-09T22:04:55.824Z,100.00
2022-10-09T22:07:26.739Z,100.00
2022-10-09T22:09:56.777Z,100.00
2022-10-09T22:12:26.905Z,100.00
2022-10-09T22:14:57.548Z,100.00
2022-10-09T22:17:27.038Z,100.00
2022-10-09T22:19:56.836Z,100.00
2022-10-09T22:22:26.947Z,100.00
2022-10-09T22:24:57.104Z,100.00
2022-10-09T22:27:26.963Z,100.00
2022-10-09T22:29:57.037Z,100.00
2022-10-09T22:32:26.817Z,100.00
2022-10-09T22:34:56.600Z,100.00
2022-10-09T22:37:26.574Z,100.00
2022-10-09T22:39:56.214Z,100.00
2022-10-09T22:42:26.010Z,100.00
2022-10-09T22:44:55.786Z,100.00
2022-10-09T22:47:25.589Z,100.00
2022-10-09T22:49:55.449Z,100.00
2022-10-09T22:52:28.581Z,100.00
2022-10-09T22:55:00.552Z,100.00
2022-10-09T22:57:29.303Z,100.00
2022-10-09T22:59:59.190Z,100.00
2022-10-09T23:02:29.039Z,100.00
2022-10-09T23:04:58.824Z,100.00
2022-10-09T23:07:28.589Z,100.00
2022-10-09T23:09:58.522Z,100.00
2022-10-09T23:12:28.611Z,100.00
2022-10-09T23:14:58.468Z,100.00
2022-10-09T23:17:28.547Z,100.00
2022-10-09T23:19:58.325Z,100.00
2022-10-09T23:22:28.113Z,100.00
2022-10-09T23:24:57.895Z,100.00
2022-10-09T23:27:27.970Z,100.00
2022-10-09T23:29:57.743Z,100.00
2022-10-09T23:32:27.890Z,100.00
2022-10-09T23:34:57.742Z,100.00
2022-10-09T23:37:27.533Z,100.00
2022-10-09T23:39:57.611Z,100.00
2022-10-09T23:42:27.447Z,100.00
2022-10-09T23:44:57.229Z,100.00
2022-10-09T23:47:27.310Z,100.00
2022-10-09T23:49:57.124Z,100.00
2022-10-09T23:52:27.182Z,100.00
2022-10-09T23:54:56.779Z,100.00
2022-10-09T23:57:26.706Z,100.00
2022-10-09T23:59:56.480Z,100.00
